sensor_id;sensor_type;location;lat;lon;timestamp;P1;durP1;ratioP1;P2;durP2;ratioP2
12986;SDS011;58897;51.960;5.582;2022-10-16T00:01:12;2.73;;;2.07;;
12986;SDS011;58897;51.960;5.582;2022-10-16T00:03:41;3.03;;;1.80;;
12986;SDS011;58897;51.960;5.582;2022-10-16T00:06:08;2.50;;;2.20;;
12986;SDS011;58897;51.960;5.582;2022-10-16T00:08:36;2.70;;;1.70;;
12986;SDS011;58897;51.960;5.582;2022-10-16T00:11:04;3.67;;;2.10;;
12986;SDS011;58897;51.960;5.582;2022-10-16T00:13:52;2.70;;;2.00;;
12986;SDS011;58897;51.960;5.582;2022-10-16T00:16:22;4.80;;;2.03;;
12986;SDS011;58897;51.960;5.582;2022-10-16T00:18:49;2.47;;;2.10;;
12986;SDS011;58897;51.960;5.582;2022-10-16T00:21:17;4.47;;;1.80;;
12986;SDS011;58897;51.960;5.582;2022-10-16T00:23:46;4.53;;;2.10;;
12986;SDS011;58897;51.960;5.582;2022-10-16T00:26:16;3.30;;;1.73;;
12986;SDS011;58897;51.960;5.582;2022-10-16T00:28:47;2.90;;;2.00;;
12986;SDS011;58897;51.960;5.582;2022-10-16T00:31:14;3.13;;;2.20;;
12986;SDS011;58897;51.960;5.582;2022-10-16T00:33:42;2.60;;;2.10;;
12986;SDS011;58897;51.960;5.582;2022-10-16T00:36:10;6.40;;;2.80;;
12986;SDS011;58897;51.960;5.582;2022-10-16T00:38:39;5.60;;;2.97;;
12986;SDS011;58897;51.960;5.582;2022-10-16T00:41:06;2.50;;;1.90;;
12986;SDS011;58897;51.960;5.582;2022-10-16T00:46:15;8.50;;;2.47;;
12986;SDS011;58897;51.960;5.582;2022-10-16T00:48:46;2.77;;;2.37;;
12986;SDS011;58897;51.960;5.582;2022-10-16T00:51:18;6.57;;;2.30;;
12986;SDS011;58897;51.960;5.582;2022-10-16T00:53:49;6.33;;;2.97;;
12986;SDS011;58897;51.960;5.582;2022-10-16T00:56:17;3.77;;;2.67;;
12986;SDS011;58897;51.960;5.582;2022-10-16T00:58:43;3.13;;;2.00;;
12986;SDS011;58897;51.960;5.582;2022-10-16T01:01:10;6.90;;;2.37;;
12986;SDS011;58897;51.960;5.582;2022-10-16T01:03:37;5.27;;;2.30;;
12986;SDS011;58897;51.960;5.582;2022-10-16T01:12:09;4.87;;;2.37;;
12986;SDS011;58897;51.960;5.582;2022-10-16T01:15:04;3.07;;;2.30;;
12986;SDS011;58897;51.960;5.582;2022-10-16T01:20:28;5.57;;;2.70;;
12986;SDS011;58897;51.960;5.582;2022-10-16T01:28:21;5.00;;;2.40;;
12986;SDS011;58897;51.960;5.582;2022-10-16T01:30:52;3.50;;;2.47;;
12986;SDS011;58897;51.960;5.582;2022-10-16T01:33:46;3.47;;;2.20;;
12986;SDS011;58897;51.960;5.582;2022-10-16T01:36:18;6.57;;;2.07;;
12986;SDS011;58897;51.960;5.582;2022-10-16T01:38:52;5.37;;;2.43;;
12986;SDS011;58897;51.960;5.582;2022-10-16T01:41:28;4.77;;;2.17;;
12986;SDS011;58897;51.960;5.582;2022-10-16T01:44:01;3.60;;;2.17;;
12986;SDS011;58897;51.960;5.582;2022-10-16T01:46:32;4.83;;;2.47;;
12986;SDS011;58897;51.960;5.582;2022-10-16T01:49:01;2.00;;;1.80;;
12986;SDS011;58897;51.960;5.582;2022-10-16T01:51:29;7.17;;;2.07;;
12986;SDS011;58897;51.960;5.582;2022-10-16T01:53:56;4.63;;;2.10;;
12986;SDS011;58897;51.960;5.582;2022-10-16T01:56:26;2.87;;;2.33;;
12986;SDS011;58897;51.960;5.582;2022-10-16T01:58:58;4.60;;;2.00;;
12986;SDS011;58897;51.960;5.582;2022-10-16T02:01:38;3.50;;;2.37;;
12986;SDS011;58897;51.960;5.582;2022-10-16T02:04:13;4.90;;;2.20;;
12986;SDS011;58897;51.960;5.582;2022-10-16T02:06:43;4.60;;;2.47;;
12986;SDS011;58897;51.960;5.582;2022-10-16T02:09:10;2.33;;;1.60;;
12986;SDS011;58897;51.960;5.582;2022-10-16T02:11:37;2.40;;;2.20;;
12986;SDS011;58897;51.960;5.582;2022-10-16T02:14:04;2.57;;;1.97;;
12986;SDS011;58897;51.960;5.582;2022-10-16T02:16:39;2.67;;;2.40;;
12986;SDS011;58897;51.960;5.582;2022-10-16T02:19:10;3.27;;;2.10;;
12986;SDS011;58897;51.960;5.582;2022-10-16T02:21:54;3.30;;;2.13;;
12986;SDS011;58897;51.960;5.582;2022-10-16T02:24:27;2.90;;;2.43;;
12986;SDS011;58897;51.960;5.582;2022-10-16T02:29:40;2.97;;;2.67;;
12986;SDS011;58897;51.960;5.582;2022-10-16T02:32:11;4.63;;;2.13;;
12986;SDS011;58897;51.960;5.582;2022-10-16T02:34:41;5.37;;;2.10;;
12986;SDS011;58897;51.960;5.582;2022-10-16T02:37:09;3.90;;;2.23;;
12986;SDS011;58897;51.960;5.582;2022-10-16T02:39:36;3.87;;;2.20;;
12986;SDS011;58897;51.960;5.582;2022-10-16T02:42:04;4.87;;;2.43;;
12986;SDS011;58897;51.960;5.582;2022-10-16T02:44:35;2.90;;;2.00;;
12986;SDS011;58897;51.960;5.582;2022-10-16T02:47:01;3.30;;;1.70;;
12986;SDS011;58897;51.960;5.582;2022-10-16T02:49:28;3.60;;;1.70;;
12986;SDS011;58897;51.960;5.582;2022-10-16T02:51:55;2.83;;;1.87;;
12986;SDS011;58897;51.960;5.582;2022-10-16T02:54:21;2.60;;;2.00;;
12986;SDS011;58897;51.960;5.582;2022-10-16T02:56:47;3.07;;;2.07;;
12986;SDS011;58897;51.960;5.582;2022-10-16T02:59:14;3.00;;;1.80;;
12986;SDS011;58897;51.960;5.582;2022-10-16T03:01:41;4.13;;;2.20;;
12986;SDS011;58897;51.960;5.582;2022-10-16T03:04:07;3.57;;;2.17;;
12986;SDS011;58897;51.960;5.582;2022-10-16T03:06:34;3.90;;;2.30;;
12986;SDS011;58897;51.960;5.582;2022-10-16T03:09:00;4.77;;;2.43;;
12986;SDS011;58897;51.960;5.582;2022-10-16T03:11:27;3.20;;;1.90;;
12986;SDS011;58897;51.960;5.582;2022-10-16T03:13:54;2.30;;;1.83;;
12986;SDS011;58897;51.960;5.582;2022-10-16T03:16:20;2.30;;;1.83;;
12986;SDS011;58897;51.960;5.582;2022-10-16T03:18:49;3.77;;;1.83;;
12986;SDS011;58897;51.960;5.582;2022-10-16T03:21:16;3.77;;;1.80;;
12986;SDS011;58897;51.960;5.582;2022-10-16T03:23:43;2.17;;;1.97;;
12986;SDS011;58897;51.960;5.582;2022-10-16T03:26:09;2.37;;;2.00;;
12986;SDS011;58897;51.960;5.582;2022-10-16T03:28:35;1.90;;;1.70;;
12986;SDS011;58897;51.960;5.582;2022-10-16T03:31:02;2.97;;;1.73;;
12986;SDS011;58897;51.960;5.582;2022-10-16T03:33:28;4.73;;;2.10;;
12986;SDS011;58897;51.960;5.582;2022-10-16T03:35:55;2.83;;;2.33;;
12986;SDS011;58897;51.960;5.582;2022-10-16T03:38:22;2.27;;;1.80;;
12986;SDS011;58897;51.960;5.582;2022-10-16T03:40:48;2.37;;;1.80;;
12986;SDS011;58897;51.960;5.582;2022-10-16T03:43:14;2.10;;;1.60;;
12986;SDS011;58897;51.960;5.582;2022-10-16T03:45:41;2.23;;;2.03;;
12986;SDS011;58897;51.960;5.582;2022-10-16T03:48:07;2.87;;;2.00;;
12986;SDS011;58897;51.960;5.582;2022-10-16T03:50:34;3.30;;;2.13;;
12986;SDS011;58897;51.960;5.582;2022-10-16T03:53:00;2.80;;;1.77;;
12986;SDS011;58897;51.960;5.582;2022-10-16T03:55:27;2.13;;;1.83;;
12986;SDS011;58897;51.960;5.582;2022-10-16T03:57:53;2.13;;;1.87;;
12986;SDS011;58897;51.960;5.582;2022-10-16T04:00:19;2.80;;;2.20;;
12986;SDS011;58897;51.960;5.582;2022-10-16T04:02:46;2.20;;;1.60;;
12986;SDS011;58897;51.960;5.582;2022-10-16T04:05:12;2.07;;;1.87;;
12986;SDS011;58897;51.960;5.582;2022-10-16T04:07:39;2.57;;;1.60;;
12986;SDS011;58897;51.960;5.582;2022-10-16T04:10:05;3.40;;;1.87;;
12986;SDS011;58897;51.960;5.582;2022-10-16T04:12:32;2.73;;;1.67;;
12986;SDS011;58897;51.960;5.582;2022-10-16T04:14:58;1.90;;;1.60;;
12986;SDS011;58897;51.960;5.582;2022-10-16T04:17:25;4.40;;;1.50;;
12986;SDS011;58897;51.960;5.582;2022-10-16T04:19:52;2.97;;;1.70;;
12986;SDS011;58897;51.960;5.582;2022-10-16T04:22:18;3.70;;;2.10;;
12986;SDS011;58897;51.960;5.582;2022-10-16T04:24:45;2.23;;;1.53;;
12986;SDS011;58897;51.960;5.582;2022-10-16T04:27:11;2.17;;;1.50;;
12986;SDS011;58897;51.960;5.582;2022-10-16T04:29:37;2.80;;;2.10;;
12986;SDS011;58897;51.960;5.582;2022-10-16T04:32:04;4.77;;;1.97;;
12986;SDS011;58897;51.960;5.582;2022-10-16T04:34:30;2.60;;;1.80;;
12986;SDS011;58897;51.960;5.582;2022-10-16T04:36:57;2.63;;;1.87;;
12986;SDS011;58897;51.960;5.582;2022-10-16T04:39:23;3.50;;;1.77;;
12986;SDS011;58897;51.960;5.582;2022-10-16T04:41:49;3.17;;;1.67;;
12986;SDS011;58897;51.960;5.582;2022-10-16T04:44:16;2.37;;;1.77;;
12986;SDS011;58897;51.960;5.582;2022-10-16T04:46:42;2.97;;;1.73;;
12986;SDS011;58897;51.960;5.582;2022-10-16T04:49:10;2.47;;;1.87;;
12986;SDS011;58897;51.960;5.582;2022-10-16T04:51:36;1.60;;;1.50;;
12986;SDS011;58897;51.960;5.582;2022-10-16T04:54:03;2.57;;;1.90;;
12986;SDS011;58897;51.960;5.582;2022-10-16T04:56:29;5.03;;;2.03;;
12986;SDS011;58897;51.960;5.582;2022-10-16T04:58:56;2.90;;;1.73;;
12986;SDS011;58897;51.960;5.582;2022-10-16T05:01:22;2.43;;;1.70;;
12986;SDS011;58897;51.960;5.582;2022-10-16T05:03:48;4.37;;;1.73;;
12986;SDS011;58897;51.960;5.582;2022-10-16T05:06:15;2.37;;;1.60;;
12986;SDS011;58897;51.960;5.582;2022-10-16T05:08:41;2.20;;;1.57;;
12986;SDS011;58897;51.960;5.582;2022-10-16T05:11:08;3.17;;;1.50;;
12986;SDS011;58897;51.960;5.582;2022-10-16T05:13:34;3.37;;;1.70;;
12986;SDS011;58897;51.960;5.582;2022-10-16T05:16:00;1.90;;;1.70;;
12986;SDS011;58897;51.960;5.582;2022-10-16T05:18:27;2.47;;;1.90;;
12986;SDS011;58897;51.960;5.582;2022-10-16T05:20:53;2.43;;;2.00;;
12986;SDS011;58897;51.960;5.582;2022-10-16T05:23:20;2.60;;;1.67;;
12986;SDS011;58897;51.960;5.582;2022-10-16T05:25:53;2.30;;;1.73;;
12986;SDS011;58897;51.960;5.582;2022-10-16T05:28:21;4.93;;;2.00;;
12986;SDS011;58897;51.960;5.582;2022-10-16T05:30:47;2.87;;;1.60;;
12986;SDS011;58897;51.960;5.582;2022-10-16T05:33:14;2.77;;;1.80;;
12986;SDS011;58897;51.960;5.582;2022-10-16T05:35:40;2.07;;;1.87;;
12986;SDS011;58897;51.960;5.582;2022-10-16T05:38:07;3.67;;;1.87;;
12986;SDS011;58897;51.960;5.582;2022-10-16T05:40:33;2.70;;;1.67;;
12986;SDS011;58897;51.960;5.582;2022-10-16T05:43:00;2.77;;;1.70;;
12986;SDS011;58897;51.960;5.582;2022-10-16T05:45:26;5.30;;;2.00;;
12986;SDS011;58897;51.960;5.582;2022-10-16T05:47:53;1.90;;;1.80;;
12986;SDS011;58897;51.960;5.582;2022-10-16T05:50:19;1.70;;;1.60;;
12986;SDS011;58897;51.960;5.582;2022-10-16T05:52:46;7.60;;;1.60;;
12986;SDS011;58897;51.960;5.582;2022-10-16T05:55:12;2.93;;;1.87;;
12986;SDS011;58897;51.960;5.582;2022-10-16T05:57:38;2.33;;;1.90;;
12986;SDS011;58897;51.960;5.582;2022-10-16T06:00:05;4.57;;;1.70;;
12986;SDS011;58897;51.960;5.582;2022-10-16T06:02:32;3.03;;;2.10;;
12986;SDS011;58897;51.960;5.582;2022-10-16T06:04:58;1.60;;;1.50;;
12986;SDS011;58897;51.960;5.582;2022-10-16T06:07:25;2.63;;;1.90;;
12986;SDS011;58897;51.960;5.582;2022-10-16T06:09:52;2.20;;;1.83;;
12986;SDS011;58897;51.960;5.582;2022-10-16T06:12:19;2.03;;;1.73;;
12986;SDS011;58897;51.960;5.582;2022-10-16T06:14:46;2.80;;;1.90;;
12986;SDS011;58897;51.960;5.582;2022-10-16T06:17:13;2.53;;;1.80;;
12986;SDS011;58897;51.960;5.582;2022-10-16T06:19:40;1.83;;;1.73;;
12986;SDS011;58897;51.960;5.582;2022-10-16T06:22:06;2.73;;;1.93;;
12986;SDS011;58897;51.960;5.582;2022-10-16T06:24:32;2.70;;;2.07;;
12986;SDS011;58897;51.960;5.582;2022-10-16T06:26:59;3.07;;;1.80;;
12986;SDS011;58897;51.960;5.582;2022-10-16T06:29:25;2.50;;;1.80;;
12986;SDS011;58897;51.960;5.582;2022-10-16T06:31:52;2.20;;;1.73;;
12986;SDS011;58897;51.960;5.582;2022-10-16T06:34:19;3.40;;;2.00;;
12986;SDS011;58897;51.960;5.582;2022-10-16T06:36:45;4.40;;;1.93;;
12986;SDS011;58897;51.960;5.582;2022-10-16T06:39:12;2.50;;;1.83;;
12986;SDS011;58897;51.960;5.582;2022-10-16T06:41:38;3.47;;;1.97;;
12986;SDS011;58897;51.960;5.582;2022-10-16T06:44:05;2.77;;;2.00;;
12986;SDS011;58897;51.960;5.582;2022-10-16T06:46:33;1.90;;;1.63;;
12986;SDS011;58897;51.960;5.582;2022-10-16T06:49:00;4.50;;;1.90;;
12986;SDS011;58897;51.960;5.582;2022-10-16T06:51:26;3.63;;;1.83;;
12986;SDS011;58897;51.960;5.582;2022-10-16T06:53:53;5.50;;;2.20;;
12986;SDS011;58897;51.960;5.582;2022-10-16T06:56:30;3.43;;;1.90;;
12986;SDS011;58897;51.960;5.582;2022-10-16T06:58:58;2.77;;;1.80;;
12986;SDS011;58897;51.960;5.582;2022-10-16T07:01:25;4.57;;;1.97;;
12986;SDS011;58897;51.960;5.582;2022-10-16T07:03:52;3.03;;;2.23;;
12986;SDS011;58897;51.960;5.582;2022-10-16T07:06:20;3.90;;;2.10;;
12986;SDS011;58897;51.960;5.582;2022-10-16T07:08:48;2.53;;;2.00;;
12986;SDS011;58897;51.960;5.582;2022-10-16T07:11:15;2.40;;;2.20;;
12986;SDS011;58897;51.960;5.582;2022-10-16T07:13:43;2.80;;;2.53;;
12986;SDS011;58897;51.960;5.582;2022-10-16T07:16:20;4.57;;;2.43;;
12986;SDS011;58897;51.960;5.582;2022-10-16T07:18:48;3.13;;;2.37;;
12986;SDS011;58897;51.960;5.582;2022-10-16T07:21:19;4.73;;;2.77;;
12986;SDS011;58897;51.960;5.582;2022-10-16T07:23:52;5.00;;;2.17;;
12986;SDS011;58897;51.960;5.582;2022-10-16T07:26:19;5.90;;;2.00;;
12986;SDS011;58897;51.960;5.582;2022-10-16T07:28:46;2.77;;;1.97;;
12986;SDS011;58897;51.960;5.582;2022-10-16T07:31:13;3.43;;;2.00;;
12986;SDS011;58897;51.960;5.582;2022-10-16T07:33:41;3.53;;;1.83;;
12986;SDS011;58897;51.960;5.582;2022-10-16T07:36:10;3.13;;;2.00;;
12986;SDS011;58897;51.960;5.582;2022-10-16T07:38:41;2.67;;;2.20;;
12986;SDS011;58897;51.960;5.582;2022-10-16T07:41:12;2.70;;;1.70;;
12986;SDS011;58897;51.960;5.582;2022-10-16T07:43:40;3.80;;;2.00;;
12986;SDS011;58897;51.960;5.582;2022-10-16T07:46:11;3.33;;;2.00;;
12986;SDS011;58897;51.960;5.582;2022-10-16T07:48:37;3.87;;;2.07;;
12986;SDS011;58897;51.960;5.582;2022-10-16T07:51:05;4.17;;;2.00;;
12986;SDS011;58897;51.960;5.582;2022-10-16T07:53:32;3.10;;;2.10;;
12986;SDS011;58897;51.960;5.582;2022-10-16T07:56:03;3.23;;;2.10;;
12986;SDS011;58897;51.960;5.582;2022-10-16T07:58:32;2.83;;;2.07;;
12986;SDS011;58897;51.960;5.582;2022-10-16T08:01:02;6.00;;;1.87;;
12986;SDS011;58897;51.960;5.582;2022-10-16T08:03:30;4.17;;;2.17;;
12986;SDS011;58897;51.960;5.582;2022-10-16T08:05:57;2.50;;;2.20;;
12986;SDS011;58897;51.960;5.582;2022-10-16T08:08:24;2.50;;;2.17;;
12986;SDS011;58897;51.960;5.582;2022-10-16T08:10:52;3.00;;;1.80;;
12986;SDS011;58897;51.960;5.582;2022-10-16T08:13:18;3.37;;;2.20;;
12986;SDS011;58897;51.960;5.582;2022-10-16T08:15:45;5.00;;;2.10;;
12986;SDS011;58897;51.960;5.582;2022-10-16T08:18:12;3.93;;;2.30;;
12986;SDS011;58897;51.960;5.582;2022-10-16T08:20:40;3.10;;;2.17;;
12986;SDS011;58897;51.960;5.582;2022-10-16T08:23:09;3.97;;;2.23;;
12986;SDS011;58897;51.960;5.582;2022-10-16T08:25:37;2.80;;;2.30;;
12986;SDS011;58897;51.960;5.582;2022-10-16T08:28:04;3.93;;;2.00;;
12986;SDS011;58897;51.960;5.582;2022-10-16T08:30:31;4.90;;;2.67;;
12986;SDS011;58897;51.960;5.582;2022-10-16T08:32:58;4.47;;;2.60;;
12986;SDS011;58897;51.960;5.582;2022-10-16T08:35:24;4.13;;;2.30;;
12986;SDS011;58897;51.960;5.582;2022-10-16T08:37:51;4.40;;;2.00;;
12986;SDS011;58897;51.960;5.582;2022-10-16T08:40:24;4.77;;;2.30;;
12986;SDS011;58897;51.960;5.582;2022-10-16T08:51:08;3.00;;;1.60;;
12986;SDS011;58897;51.960;5.582;2022-10-16T08:53:38;3.30;;;2.13;;
12986;SDS011;58897;51.960;5.582;2022-10-16T08:56:10;4.20;;;1.47;;
12986;SDS011;58897;51.960;5.582;2022-10-16T08:58:37;3.10;;;1.50;;
12986;SDS011;58897;51.960;5.582;2022-10-16T09:01:04;5.67;;;1.37;;
12986;SDS011;58897;51.960;5.582;2022-10-16T09:03:42;3.43;;;1.20;;
12986;SDS011;58897;51.960;5.582;2022-10-16T09:06:38;5.20;;;1.70;;
12986;SDS011;58897;51.960;5.582;2022-10-16T09:14:57;3.63;;;1.50;;
12986;SDS011;58897;51.960;5.582;2022-10-16T09:22:55;6.40;;;1.70;;
12986;SDS011;58897;51.960;5.582;2022-10-16T09:25:35;3.87;;;1.40;;
12986;SDS011;58897;51.960;5.582;2022-10-16T09:28:04;4.00;;;1.43;;
12986;SDS011;58897;51.960;5.582;2022-10-16T09:30:30;2.20;;;1.30;;
12986;SDS011;58897;51.960;5.582;2022-10-16T09:32:57;3.07;;;1.43;;
12986;SDS011;58897;51.960;5.582;2022-10-16T09:35:32;3.70;;;1.37;;
12986;SDS011;58897;51.960;5.582;2022-10-16T09:38:02;5.90;;;1.20;;
12986;SDS011;58897;51.960;5.582;2022-10-16T09:46:46;2.60;;;1.43;;
12986;SDS011;58897;51.960;5.582;2022-10-16T09:49:00;2.83;;;1.40;;
12986;SDS011;58897;51.960;5.582;2022-10-16T09:51:35;4.33;;;1.30;;
12986;SDS011;58897;51.960;5.582;2022-10-16T09:56:33;4.73;;;1.30;;
12986;SDS011;58897;51.960;5.582;2022-10-16T09:59:17;5.83;;;1.57;;
12986;SDS011;58897;51.960;5.582;2022-10-16T10:01:46;7.47;;;1.63;;
12986;SDS011;58897;51.960;5.582;2022-10-16T10:04:14;5.80;;;1.40;;
12986;SDS011;58897;51.960;5.582;2022-10-16T10:06:43;4.13;;;1.50;;
12986;SDS011;58897;51.960;5.582;2022-10-16T10:11:56;6.63;;;1.37;;
12986;SDS011;58897;51.960;5.582;2022-10-16T10:14:30;3.20;;;1.20;;
12986;SDS011;58897;51.960;5.582;2022-10-16T10:19:39;4.17;;;1.70;;
12986;SDS011;58897;51.960;5.582;2022-10-16T10:22:27;4.97;;;1.20;;
12986;SDS011;58897;51.960;5.582;2022-10-16T10:33:09;2.70;;;1.33;;
12986;SDS011;58897;51.960;5.582;2022-10-16T10:36:21;3.77;;;1.00;;
12986;SDS011;58897;51.960;5.582;2022-10-16T10:38:57;5.30;;;1.60;;
12986;SDS011;58897;51.960;5.582;2022-10-16T10:44:01;4.27;;;1.50;;
12986;SDS011;58897;51.960;5.582;2022-10-16T10:46:50;4.87;;;1.83;;
12986;SDS011;58897;51.960;5.582;2022-10-16T10:54:54;5.63;;;1.63;;
12986;SDS011;58897;51.960;5.582;2022-10-16T11:06:18;3.93;;;1.30;;
12986;SDS011;58897;51.960;5.582;2022-10-16T11:08:57;5.20;;;1.20;;
12986;SDS011;58897;51.960;5.582;2022-10-16T11:11:52;6.60;;;1.30;;
12986;SDS011;58897;51.960;5.582;2022-10-16T11:17:28;5.83;;;1.57;;
12986;SDS011;58897;51.960;5.582;2022-10-16T11:20:02;4.20;;;1.20;;
12986;SDS011;58897;51.960;5.582;2022-10-16T11:22:47;6.17;;;1.30;;
12986;SDS011;58897;51.960;5.582;2022-10-16T11:30:47;5.07;;;1.07;;
12986;SDS011;58897;51.960;5.582;2022-10-16T11:35:47;5.80;;;1.33;;
12986;SDS011;58897;51.960;5.582;2022-10-16T11:44:14;6.07;;;1.60;;
12986;SDS011;58897;51.960;5.582;2022-10-16T11:46:48;5.80;;;1.47;;
12986;SDS011;58897;51.960;5.582;2022-10-16T11:49:45;6.70;;;1.40;;
12986;SDS011;58897;51.960;5.582;2022-10-16T11:52:35;4.90;;;1.20;;
12986;SDS011;58897;51.960;5.582;2022-10-16T11:57:35;2.50;;;0.87;;
12986;SDS011;58897;51.960;5.582;2022-10-16T12:00:09;3.57;;;1.53;;
12986;SDS011;58897;51.960;5.582;2022-10-16T12:08:09;6.60;;;1.33;;
12986;SDS011;58897;51.960;5.582;2022-10-16T12:10:39;4.37;;;1.50;;
12986;SDS011;58897;51.960;5.582;2022-10-16T12:16:05;7.00;;;1.20;;
12986;SDS011;58897;51.960;5.582;2022-10-16T12:18:38;11.40;;;1.50;;
12986;SDS011;58897;51.960;5.582;2022-10-16T12:21:06;4.57;;;1.03;;
12986;SDS011;58897;51.960;5.582;2022-10-16T12:23:37;3.90;;;1.10;;
12986;SDS011;58897;51.960;5.582;2022-10-16T12:26:05;3.97;;;1.20;;
12986;SDS011;58897;51.960;5.582;2022-10-16T12:28:32;9.93;;;1.70;;
12986;SDS011;58897;51.960;5.582;2022-10-16T12:33:28;7.37;;;1.10;;
12986;SDS011;58897;51.960;5.582;2022-10-16T12:35:56;5.27;;;1.23;;
12986;SDS011;58897;51.960;5.582;2022-10-16T12:41:23;5.97;;;1.10;;
12986;SDS011;58897;51.960;5.582;2022-10-16T12:43:51;4.93;;;1.57;;
12986;SDS011;58897;51.960;5.582;2022-10-16T12:48:44;4.43;;;1.13;;
12986;SDS011;58897;51.960;5.582;2022-10-16T12:53:59;7.27;;;1.40;;
12986;SDS011;58897;51.960;5.582;2022-10-16T13:01:52;6.27;;;1.60;;
12986;SDS011;58897;51.960;5.582;2022-10-16T13:10:25;3.37;;;1.27;;
12986;SDS011;58897;51.960;5.582;2022-10-16T13:21:36;7.13;;;1.43;;
12986;SDS011;58897;51.960;5.582;2022-10-16T13:27:52;8.90;;;1.50;;
12986;SDS011;58897;51.960;5.582;2022-10-16T13:33:03;7.00;;;1.80;;
12986;SDS011;58897;51.960;5.582;2022-10-16T13:35:34;3.13;;;1.20;;
12986;SDS011;58897;51.960;5.582;2022-10-16T13:40:37;8.57;;;1.00;;
12986;SDS011;58897;51.960;5.582;2022-10-16T13:43:46;7.87;;;1.10;;
12986;SDS011;58897;51.960;5.582;2022-10-16T13:46:16;5.77;;;1.50;;
12986;SDS011;58897;51.960;5.582;2022-10-16T13:48:57;4.03;;;1.20;;
12986;SDS011;58897;51.960;5.582;2022-10-16T13:51:25;5.70;;;1.73;;
12986;SDS011;58897;51.960;5.582;2022-10-16T13:53:52;5.60;;;1.27;;
12986;SDS011;58897;51.960;5.582;2022-10-16T13:56:21;4.93;;;1.40;;
12986;SDS011;58897;51.960;5.582;2022-10-16T13:59:02;5.60;;;1.40;;
12986;SDS011;58897;51.960;5.582;2022-10-16T14:04:07;7.73;;;1.70;;
12986;SDS011;58897;51.960;5.582;2022-10-16T14:06:36;7.20;;;1.50;;
12986;SDS011;58897;51.960;5.582;2022-10-16T14:09:26;4.20;;;1.03;;
12986;SDS011;58897;51.960;5.582;2022-10-16T14:11:55;3.50;;;1.00;;
12986;SDS011;58897;51.960;5.582;2022-10-16T14:14:38;7.63;;;1.50;;
12986;SDS011;58897;51.960;5.582;2022-10-16T14:17:13;5.63;;;1.23;;
12986;SDS011;58897;51.960;5.582;2022-10-16T14:19:54;6.40;;;1.20;;
12986;SDS011;58897;51.960;5.582;2022-10-16T14:27:44;10.07;;;1.30;;
12986;SDS011;58897;51.960;5.582;2022-10-16T14:32:54;5.43;;;1.50;;
12986;SDS011;58897;51.960;5.582;2022-10-16T14:35:26;4.17;;;1.37;;
12986;SDS011;58897;51.960;5.582;2022-10-16T14:37:55;7.27;;;1.50;;
12986;SDS011;58897;51.960;5.582;2022-10-16T14:40:24;5.37;;;1.37;;
12986;SDS011;58897;51.960;5.582;2022-10-16T14:42:52;5.23;;;1.10;;
12986;SDS011;58897;51.960;5.582;2022-10-16T14:45:20;6.83;;;1.63;;
12986;SDS011;58897;51.960;5.582;2022-10-16T14:47:50;7.53;;;1.53;;
12986;SDS011;58897;51.960;5.582;2022-10-16T14:50:20;6.23;;;1.47;;
12986;SDS011;58897;51.960;5.582;2022-10-16T14:52:47;5.20;;;1.67;;
12986;SDS011;58897;51.960;5.582;2022-10-16T14:55:13;3.23;;;1.60;;
12986;SDS011;58897;51.960;5.582;2022-10-16T14:57:40;5.07;;;1.33;;
12986;SDS011;58897;51.960;5.582;2022-10-16T15:00:14;5.37;;;1.43;;
12986;SDS011;58897;51.960;5.582;2022-10-16T15:02:44;5.53;;;1.13;;
12986;SDS011;58897;51.960;5.582;2022-10-16T15:07:43;7.37;;;1.50;;
12986;SDS011;58897;51.960;5.582;2022-10-16T15:10:10;6.17;;;1.90;;
12986;SDS011;58897;51.960;5.582;2022-10-16T15:12:36;5.70;;;1.53;;
12986;SDS011;58897;51.960;5.582;2022-10-16T15:17:52;3.83;;;1.27;;
12986;SDS011;58897;51.960;5.582;2022-10-16T15:20:25;4.23;;;1.70;;
12986;SDS011;58897;51.960;5.582;2022-10-16T15:22:57;5.67;;;1.30;;
12986;SDS011;58897;51.960;5.582;2022-10-16T15:27:58;9.20;;;1.77;;
12986;SDS011;58897;51.960;5.582;2022-10-16T15:30:26;5.57;;;1.53;;
12986;SDS011;58897;51.960;5.582;2022-10-16T15:32:53;5.60;;;1.40;;
12986;SDS011;58897;51.960;5.582;2022-10-16T15:35:19;5.13;;;1.47;;
12986;SDS011;58897;51.960;5.582;2022-10-16T15:37:46;4.47;;;1.60;;
12986;SDS011;58897;51.960;5.582;2022-10-16T15:40:14;6.23;;;1.67;;
12986;SDS011;58897;51.960;5.582;2022-10-16T15:42:41;5.27;;;1.33;;
12986;SDS011;58897;51.960;5.582;2022-10-16T15:45:08;8.03;;;1.50;;
12986;SDS011;58897;51.960;5.582;2022-10-16T15:47:35;8.83;;;1.50;;
12986;SDS011;58897;51.960;5.582;2022-10-16T15:50:02;6.60;;;1.57;;
12986;SDS011;58897;51.960;5.582;2022-10-16T15:52:29;7.20;;;1.60;;
12986;SDS011;58897;51.960;5.582;2022-10-16T15:54:58;5.13;;;1.60;;
12986;SDS011;58897;51.960;5.582;2022-10-16T15:57:24;3.90;;;1.77;;
12986;SDS011;58897;51.960;5.582;2022-10-16T15:59:51;10.47;;;1.90;;
12986;SDS011;58897;51.960;5.582;2022-10-16T16:02:17;6.70;;;2.13;;
12986;SDS011;58897;51.960;5.582;2022-10-16T16:04:44;6.63;;;1.83;;
12986;SDS011;58897;51.960;5.582;2022-10-16T16:07:10;7.50;;;1.70;;
12986;SDS011;58897;51.960;5.582;2022-10-16T16:09:37;8.73;;;1.80;;
12986;SDS011;58897;51.960;5.582;2022-10-16T16:12:04;4.97;;;1.50;;
12986;SDS011;58897;51.960;5.582;2022-10-16T16:14:30;2.93;;;1.40;;
12986;SDS011;58897;51.960;5.582;2022-10-16T16:16:57;7.80;;;1.80;;
12986;SDS011;58897;51.960;5.582;2022-10-16T16:19:23;7.50;;;2.93;;
12986;SDS011;58897;51.960;5.582;2022-10-16T16:21:50;3.73;;;1.93;;
12986;SDS011;58897;51.960;5.582;2022-10-16T16:24:17;8.23;;;2.53;;
12986;SDS011;58897;51.960;5.582;2022-10-16T16:26:43;6.47;;;2.13;;
12986;SDS011;58897;51.960;5.582;2022-10-16T16:29:13;6.70;;;2.17;;
12986;SDS011;58897;51.960;5.582;2022-10-16T16:31:41;6.70;;;1.83;;
12986;SDS011;58897;51.960;5.582;2022-10-16T16:34:08;7.70;;;2.13;;
12986;SDS011;58897;51.960;5.582;2022-10-16T16:36:35;7.10;;;1.90;;
12986;SDS011;58897;51.960;5.582;2022-10-16T16:39:01;5.10;;;1.70;;
12986;SDS011;58897;51.960;5.582;2022-10-16T16:41:29;4.53;;;1.40;;
12986;SDS011;58897;51.960;5.582;2022-10-16T16:44:01;5.33;;;1.90;;
12986;SDS011;58897;51.960;5.582;2022-10-16T16:46:29;6.43;;;1.77;;
12986;SDS011;58897;51.960;5.582;2022-10-16T16:48:57;4.80;;;1.50;;
12986;SDS011;58897;51.960;5.582;2022-10-16T16:51:24;8.37;;;2.10;;
12986;SDS011;58897;51.960;5.582;2022-10-16T16:53:52;4.97;;;1.73;;
12986;SDS011;58897;51.960;5.582;2022-10-16T16:56:20;5.17;;;2.10;;
12986;SDS011;58897;51.960;5.582;2022-10-16T16:58:49;3.80;;;2.10;;
12986;SDS011;58897;51.960;5.582;2022-10-16T17:01:16;7.43;;;2.40;;
12986;SDS011;58897;51.960;5.582;2022-10-16T17:03:46;6.10;;;2.33;;
12986;SDS011;58897;51.960;5.582;2022-10-16T17:06:22;5.53;;;1.70;;
12986;SDS011;58897;51.960;5.582;2022-10-16T17:08:49;6.87;;;1.50;;
12986;SDS011;58897;51.960;5.582;2022-10-16T17:11:24;3.17;;;1.63;;
12986;SDS011;58897;51.960;5.582;2022-10-16T17:13:53;4.13;;;1.47;;
12986;SDS011;58897;51.960;5.582;2022-10-16T17:16:33;3.77;;;1.83;;
12986;SDS011;58897;51.960;5.582;2022-10-16T17:19:02;5.20;;;1.70;;
12986;SDS011;58897;51.960;5.582;2022-10-16T17:21:30;4.83;;;1.70;;
12986;SDS011;58897;51.960;5.582;2022-10-16T17:23:58;6.60;;;1.70;;
12986;SDS011;58897;51.960;5.582;2022-10-16T17:26:25;3.60;;;1.80;;
12986;SDS011;58897;51.960;5.582;2022-10-16T17:28:53;4.00;;;1.57;;
12986;SDS011;58897;51.960;5.582;2022-10-16T17:31:26;3.90;;;1.70;;
12986;SDS011;58897;51.960;5.582;2022-10-16T17:33:54;5.47;;;1.80;;
12986;SDS011;58897;51.960;5.582;2022-10-16T17:36:21;5.73;;;1.67;;
12986;SDS011;58897;51.960;5.582;2022-10-16T17:38:48;3.73;;;1.60;;
12986;SDS011;58897;51.960;5.582;2022-10-16T17:41:16;3.77;;;1.63;;
12986;SDS011;58897;51.960;5.582;2022-10-16T17:43:45;4.93;;;1.63;;
12986;SDS011;58897;51.960;5.582;2022-10-16T17:46:12;5.07;;;2.40;;